»·PEaware :: DAL730 KLAS-KLAX

DAL730 :: KLAS-KLAX

FLIGHT INFORMATION

Flight Status: Arrived
Operator:
Delta Air Lines
More flights by this operator :: More flights under this callsign
Pilot: Christian H. (16685)
Aircraft: BOEING 737-800
(B738)
More flights by this aircraft type
Origin: KLAS McCarran Intl
United States
Destination: KLAX Los Angeles Intl
United States
More flights between these airports :: More routes between these airports
Route: BOACH8 RIKII SHTNR ANJLL4
File this flight plan on PilotEdge
Remarks: PBN / A1B1C1D1S1S2 NAV / RNVD1E2A1 REG / N806SB RMK / SIMBRIEF
Altitude:
(Current/Filed)
32,000ft
Speed:
(Current/Filed)
467kts
Departed: 23-Nov-18 10:00 PM
Arrived: 23-Nov-18 10:50 PM
Distance/Time
Traveled:
205nm/0:50
Distance/Time
To Go:
Arrived

Flight Plot

Page will automatically refresh every two minutes.

Flight plan parsing failed; only flown route is shown


Map Options




Map Legend


Flown Route
Filed Route
Departure Airport
Arrival Airport
Navaid (VOR, NDB)
Fix

Horizontal Profiles

Position Reports

Time Latitude Longitude Heading Altitude Ground
Speed
23-Nov-18 21:33 36.079857 -115.145793 310 2093ft 0kts
23-Nov-18 21:34 36.079857 -115.145793 310 2093ft 0kts
23-Nov-18 21:35 36.079857 -115.145793 310 2093ft 0kts
23-Nov-18 21:36 36.079857 -115.145793 310 2093ft 0kts
23-Nov-18 21:37 36.079857 -115.145793 310 2093ft 0kts
23-Nov-18 21:38 36.079857 -115.145793 310 2093ft 0kts
23-Nov-18 21:39 36.079857 -115.145793 310 2093ft 0kts
23-Nov-18 21:40 36.079857 -115.145793 310 2093ft 0kts
23-Nov-18 21:41 36.079857 -115.145793 310 2093ft 0kts
23-Nov-18 21:42 36.079857 -115.145793 310 2093ft 0kts
23-Nov-18 21:43 36.079857 -115.145793 310 2093ft 0kts
23-Nov-18 21:44 36.079857 -115.145793 310 2093ft 0kts
23-Nov-18 21:45 36.079857 -115.145793 310 2093ft 0kts
23-Nov-18 21:46 36.079857 -115.145793 310 2093ft 0kts
23-Nov-18 21:47 36.079857 -115.145793 310 2093ft 0kts
23-Nov-18 21:48 36.079837 -115.145763 310 2093ft 2kts
23-Nov-18 21:49 36.079340 -115.145506 22 2093ft 2kts
23-Nov-18 21:50 36.079120 -115.145775 61 2094ft 0kts
23-Nov-18 21:51 36.079120 -115.145775 61 2094ft 0kts
23-Nov-18 21:52 36.079120 -115.145775 61 2094ft 0kts
23-Nov-18 21:53 36.079121 -115.145775 61 2094ft 0kts
23-Nov-18 21:54 36.079121 -115.145775 61 2094ft 0kts
23-Nov-18 21:55 36.079121 -115.145775 61 2094ft 0kts
23-Nov-18 21:56 36.078464 -115.144705 134 2093ft 10kts
23-Nov-18 21:57 36.078271 -115.139976 89 2078ft 16kts
23-Nov-18 21:58 36.078272 -115.133719 89 2060ft 23kts
23-Nov-18 21:59 36.077538 -115.130616 90 2052ft 19kts
23-Nov-18 22:00 36.077552 -115.122855 90 2037ft 15kts
23-Nov-18 22:01 36.077388 -115.121454 136 2037ft 0kts
23-Nov-18 22:02 36.076769 -115.121260 177 2037ft 13kts
23-Nov-18 22:03 36.076414 -115.143250 270 2091ft 163kts
23-Nov-18 22:04 36.077723 -115.203545 268 4513ft 179kts
23-Nov-18 22:05 36.061244 -115.273983 225 6018ft 265kts
23-Nov-18 22:06 35.987579 -115.296499 186 7966ft 315kts
23-Nov-18 22:07 35.897111 -115.309418 187 10768ft 311kts
23-Nov-18 22:08 35.820011 -115.312414 174 11547ft 264kts
23-Nov-18 22:09 35.744555 -115.303943 177 13196ft 288kts
23-Nov-18 22:10 35.666819 -115.294531 181 13417ft 294kts
23-Nov-18 22:11 35.586443 -115.297694 187 16515ft 286kts
23-Nov-18 22:12 35.503751 -115.308958 197 18394ft 312kts
23-Nov-18 22:13 35.432812 -115.353917 215 21539ft 281kts
23-Nov-18 22:14 35.365987 -115.401418 213 23578ft 285kts
23-Nov-18 22:15 35.299245 -115.451016 218 25429ft 278kts
23-Nov-18 22:16 35.230221 -115.501685 214 26884ft 285kts
23-Nov-18 22:17 35.163675 -115.548635 220 28613ft 267kts
23-Nov-18 22:18 35.103887 -115.604566 231 29227ft 283kts
23-Nov-18 22:19 35.050343 -115.673300 230 30432ft 281kts
23-Nov-18 22:20 34.996167 -115.741529 232 31499ft 282kts
23-Nov-18 22:21 34.943076 -115.812147 233 32146ft 293kts
23-Nov-18 22:22 34.887134 -115.884704 230 32017ft 290kts
23-Nov-18 22:23 34.831796 -115.955650 231 32127ft 287kts
23-Nov-18 22:24 34.775396 -116.028312 229 32088ft 311kts
23-Nov-18 22:25 34.714133 -116.107814 234 32125ft 337kts
23-Nov-18 22:26 34.652974 -116.200269 234 31810ft 371kts
23-Nov-18 22:27 34.586692 -116.300048 234 30795ft 380kts
23-Nov-18 22:28 34.520996 -116.398592 234 29771ft 376kts
23-Nov-18 22:29 34.456078 -116.495686 234 28746ft 371kts
23-Nov-18 22:30 34.390510 -116.593582 234 26885ft 380kts
23-Nov-18 22:31 34.329593 -116.688627 244 24846ft 366kts
23-Nov-18 22:32 34.286147 -116.796654 246 22887ft 357kts
23-Nov-18 22:33 34.243430 -116.902764 246 20895ft 349kts
23-Nov-18 22:34 34.203277 -117.007672 254 18915ft 343kts
23-Nov-18 22:35 34.175784 -117.113242 255 17276ft 327kts
23-Nov-18 22:36 34.148292 -117.214004 254 16185ft 310kts
23-Nov-18 22:37 34.121355 -117.311890 254 15194ft 308kts
23-Nov-18 22:38 34.095407 -117.408442 256 13696ft 303kts
23-Nov-18 22:39 34.071575 -117.503575 253 11932ft 298kts
23-Nov-18 22:40 34.039442 -117.592846 249 10753ft 298kts
23-Nov-18 22:41 34.008497 -117.678637 252 9957ft 273kts
23-Nov-18 22:42 33.998831 -117.761953 268 9541ft 268kts
23-Nov-18 22:43 33.993306 -117.845213 266 7946ft 242kts
23-Nov-18 22:44 33.985302 -117.922210 264 7083ft 236kts
23-Nov-18 22:45 33.975929 -117.997914 264 6498ft 221kts
23-Nov-18 22:46 33.970197 -118.060425 265 5456ft 177kts
23-Nov-18 22:47 33.964803 -118.113110 265 4658ft 155kts
23-Nov-18 22:48 33.959597 -118.165671 261 4004ft 167kts
23-Nov-18 22:49 33.953540 -118.220475 267 3036ft 166kts
23-Nov-18 22:50 33.947835 -118.275401 263 1820ft 158kts
23-Nov-18 22:51 33.943188 -118.324936 263 1101ft 150kts
23-Nov-18 22:52 33.938158 -118.374292 264 260ft 144kts
23-Nov-18 22:53 33.935835 -118.402317 288 123ft 30kts
23-Nov-18 22:54 33.936236 -118.403636 280 126ft 8kts
23-Nov-18 22:55 33.936399 -118.408803 335 132ft 14kts
23-Nov-18 22:56 33.938257 -118.409192 345 131ft 12kts
23-Nov-18 22:57 33.938524 -118.410560 81 131ft 24kts
23-Nov-18 22:58 33.939404 -118.402238 84 124ft 23kts
23-Nov-18 22:59 33.940545 -118.401280 266 123ft 1kts
23-Nov-18 23:00 33.940545 -118.401277 266 123ft 0kts

Navigation Log

Ident Type
Flight plan parsing failed, navigation log unavailable